createdAt,value
2018-04-29T00:00:02.492Z,0
2018-04-29T00:05:02.976Z,0
2018-04-29T00:10:02.636Z,0
2018-04-29T00:15:03.128Z,0
2018-04-29T00:20:02.742Z,0
2018-04-29T00:25:03.370Z,0
2018-04-29T00:30:02.958Z,0
2018-04-29T00:35:02.553Z,0
2018-04-29T00:40:03.169Z,0
2018-04-29T00:45:02.744Z,0
2018-04-29T00:50:03.284Z,0
2018-04-29T00:55:02.814Z,0
2018-04-29T01:00:03.441Z,0
2018-04-29T01:05:03.043Z,0
2018-04-29T01:10:02.725Z,0
2018-04-29T01:15:03.344Z,0
2018-04-29T01:20:02.946Z,0
2018-04-29T01:25:02.557Z,0
2018-04-29T01:30:03.111Z,0
2018-04-29T01:35:02.663Z,0
2018-04-29T01:40:03.302Z,0
2018-04-29T01:45:02.870Z,0
2018-04-29T01:50:03.459Z,0
2018-04-29T01:55:02.900Z,0
2018-04-29T02:00:03.440Z,0
2018-04-29T02:05:02.956Z,0
2018-04-29T02:10:02.537Z,0
2018-04-29T02:15:03.257Z,0
2018-04-29T02:20:02.807Z,0
2018-04-29T02:25:03.364Z,0
2018-04-29T02:30:02.845Z,0
2018-04-29T02:35:03.408Z,0
2018-04-29T02:40:02.954Z,0
2018-04-29T02:45:02.718Z,0
2018-04-29T02:50:03.275Z,0
2018-04-29T02:55:02.904Z,0
2018-04-29T03:00:02.494Z,0
2018-04-29T03:05:03.109Z,0
2018-04-29T03:10:02.667Z,0
2018-04-29T03:15:03.232Z,0
2018-04-29T03:20:02.805Z,0
2018-04-29T03:25:03.364Z,0
2018-04-29T03:30:02.957Z,0
2018-04-29T03:35:02.564Z,1
2018-04-29T03:40:03.164Z,2
2018-04-29T03:45:02.716Z,5
2018-04-29T03:50:03.240Z,11
2018-04-29T03:55:02.797Z,22
2018-04-29T04:00:03.385Z,53
2018-04-29T04:05:02.922Z,76
2018-04-29T04:10:02.598Z,183
2018-04-29T04:15:03.213Z,304
2018-04-29T04:20:02.765Z,426
2018-04-29T04:25:03.320Z,686
2018-04-29T04:30:02.984Z,840
2018-04-29T04:35:02.598Z,907
2018-04-29T04:40:03.168Z,1000
2018-04-29T04:45:02.700Z,1000
2018-04-29T04:50:02.645Z,1000
2018-04-29T04:55:03.316Z,1000
2018-04-29T05:00:02.875Z,1000
2018-04-29T05:05:03.388Z,1000
2018-04-29T05:10:02.992Z,1000
2018-04-29T05:15:02.553Z,1000
2018-04-29T05:20:03.212Z,1000
2018-04-29T05:25:02.783Z,1000
2018-04-29T05:30:03.319Z,1000
2018-04-29T05:40:02.583Z,2000
2018-04-29T05:45:03.268Z,3000
2018-04-29T05:50:02.822Z,3000
2018-04-29T05:55:03.413Z,3000
2018-04-29T06:00:02.885Z,3000
2018-04-29T06:05:02.488Z,3000
2018-04-29T06:10:03.138Z,3000
2018-04-29T06:15:02.765Z,4000
2018-04-29T06:20:03.374Z,4000
2018-04-29T06:25:02.904Z,4000
2018-04-29T06:30:02.504Z,4000
2018-04-29T06:35:03.091Z,5000
2018-04-29T06:40:02.689Z,4000
2018-04-29T06:50:02.928Z,5000
2018-04-29T06:55:03.448Z,4000
2018-04-29T07:00:03.278Z,4000
2018-04-29T07:05:02.871Z,3000
2018-04-29T07:10:02.501Z,3000
2018-04-29T07:15:03.107Z,3000
2018-04-29T07:20:02.708Z,3000
2018-04-29T07:25:02.763Z,3000
2018-04-29T07:30:03.346Z,2000
2018-04-29T07:35:02.888Z,2000
2018-04-29T07:40:02.626Z,2000
2018-04-29T07:45:03.374Z,3000
2018-04-29T07:50:02.940Z,3000
2018-04-29T07:55:02.536Z,4000
2018-04-29T08:00:03.170Z,3000
2018-04-29T08:05:02.729Z,3000
2018-04-29T08:10:03.542Z,3000
2018-04-29T08:15:03.117Z,2000
2018-04-29T08:20:02.706Z,3000
2018-04-29T08:25:03.283Z,2000
2018-04-29T08:30:03.186Z,4000
2018-04-29T08:35:02.929Z,6000
2018-04-29T08:40:02.620Z,5000
2018-04-29T08:45:03.304Z,6000
2018-04-29T08:50:02.886Z,4000
2018-04-29T08:55:03.556Z,3000
2018-04-29T09:00:03.120Z,4000
2018-04-29T09:05:02.712Z,4000
2018-04-29T09:10:03.340Z,3000
2018-04-29T09:15:02.852Z,2000
2018-04-29T09:20:02.505Z,2000
2018-04-29T09:25:03.248Z,2000
2018-04-29T09:30:02.868Z,2000
2018-04-29T09:35:03.426Z,2000
2018-04-29T09:40:03.008Z,1000
2018-04-29T09:45:02.628Z,1000
2018-04-29T09:50:03.158Z,2000
2018-04-29T09:55:02.655Z,2000
2018-04-29T10:00:03.171Z,2000
2018-04-29T10:05:02.802Z,3000
2018-04-29T10:10:03.485Z,4000
2018-04-29T10:15:03.055Z,4000
2018-04-29T10:20:02.808Z,5000
2018-04-29T10:25:03.358Z,4000
2018-04-29T10:30:02.942Z,3000
2018-04-29T10:35:02.530Z,4000
2018-04-29T10:40:03.163Z,5000
2018-04-29T10:45:02.700Z,2000
2018-04-29T10:50:03.391Z,2000
2018-04-29T10:55:02.941Z,3000
2018-04-29T11:00:02.624Z,8000
2018-04-29T11:05:03.250Z,16000
2018-04-29T11:10:02.847Z,22000
2018-04-29T11:15:03.401Z,21000
2018-04-29T11:20:02.983Z,25000
2018-04-29T11:25:02.523Z,10000
2018-04-29T11:30:03.120Z,33000
2018-04-29T11:35:02.706Z,7000
2018-04-29T11:40:03.315Z,10000
2018-04-29T11:45:02.929Z,9000
2018-04-29T11:50:02.525Z,7000
2018-04-29T11:55:03.108Z,9000
2018-04-29T12:00:02.701Z,35000
2018-04-29T12:05:03.262Z,15000
2018-04-29T12:10:02.877Z,15000
2018-04-29T12:15:02.474Z,37000
2018-04-29T12:20:03.063Z,17000
2018-04-29T12:25:02.604Z,33000
2018-04-29T12:30:03.129Z,36000
2018-04-29T12:35:02.700Z,53000
2018-04-29T12:40:03.345Z,39000
2018-04-29T12:45:02.907Z,23000
2018-04-29T12:50:02.466Z,17000
2018-04-29T12:55:03.023Z,23000
2018-04-29T13:00:02.681Z,34000
2018-04-29T13:05:02.484Z,34000
2018-04-29T13:10:03.361Z,32000
2018-04-29T13:15:02.880Z,33000
2018-04-29T13:20:02.627Z,33000
2018-04-29T13:25:03.274Z,33000
2018-04-29T13:30:02.818Z,33000
2018-04-29T13:35:03.337Z,33000
2018-04-29T13:40:03.047Z,34000
2018-04-29T13:45:02.615Z,15000
2018-04-29T13:50:03.257Z,11000
2018-04-29T13:55:02.806Z,33000
2018-04-29T14:00:03.373Z,12000
2018-04-29T14:05:03.046Z,14000
2018-04-29T14:10:02.670Z,22000
2018-04-29T14:15:03.308Z,11000
2018-04-29T14:20:02.871Z,12000
2018-04-29T14:25:03.480Z,14000
2018-04-29T14:30:03.037Z,19000
2018-04-29T14:35:02.664Z,16000
2018-04-29T14:40:03.362Z,14000
2018-04-29T14:45:02.900Z,19000
2018-04-29T14:50:03.458Z,14000
2018-04-29T14:55:02.978Z,14000
2018-04-29T15:00:02.781Z,8000
2018-04-29T15:05:03.373Z,8000
2018-04-29T15:10:03.008Z,9000
2018-04-29T15:15:02.613Z,15000
2018-04-29T15:20:03.201Z,10000
2018-04-29T15:25:02.756Z,11000
2018-04-29T15:30:03.304Z,14000
2018-04-29T15:35:02.840Z,15000
2018-04-29T15:40:02.561Z,11000
2018-04-29T15:45:03.118Z,6000
2018-04-29T15:50:02.642Z,5000
2018-04-29T15:55:03.194Z,6000
2018-04-29T16:00:02.761Z,4000
2018-04-29T16:05:03.374Z,3000
2018-04-29T16:10:03.001Z,4000
2018-04-29T16:15:02.628Z,5000
2018-04-29T16:20:03.182Z,6000
2018-04-29T16:25:02.695Z,6000
2018-04-29T16:30:03.247Z,6000
2018-04-29T16:35:02.767Z,8000
2018-04-29T16:40:03.388Z,7000
2018-04-29T16:45:02.939Z,8000
2018-04-29T16:50:02.494Z,15000
2018-04-29T16:55:03.068Z,7000
2018-04-29T17:00:02.684Z,10000
2018-04-29T17:05:03.260Z,10000
2018-04-29T17:10:02.871Z,9000
2018-04-29T17:15:02.496Z,9000
2018-04-29T17:20:03.127Z,9000
2018-04-29T17:25:02.692Z,8000
2018-04-29T17:30:03.231Z,6000
2018-04-29T17:35:02.805Z,3000
2018-04-29T17:40:03.401Z,1000
2018-04-29T17:45:02.970Z,1000
2018-04-29T17:50:02.563Z,1000
2018-04-29T17:55:03.117Z,874
2018-04-29T18:00:02.699Z,697
2018-04-29T18:05:03.278Z,748
2018-04-29T18:10:02.799Z,406
2018-04-29T18:15:03.308Z,299
2018-04-29T18:20:02.896Z,141
2018-04-29T18:25:02.521Z,212
2018-04-29T18:30:03.143Z,127
2018-04-29T18:35:02.890Z,81
2018-04-29T18:40:02.485Z,99
2018-04-29T18:45:03.116Z,75
2018-04-29T18:50:02.701Z,64
2018-04-29T18:55:03.270Z,55
2018-04-29T19:00:02.781Z,42
2018-04-29T19:05:03.380Z,29
2018-04-29T19:10:02.968Z,18
2018-04-29T19:15:02.598Z,14
2018-04-29T19:20:03.148Z,7
2018-04-29T19:25:02.685Z,7
2018-04-29T19:30:03.234Z,0
2018-04-29T19:35:02.826Z,0
2018-04-29T19:40:03.452Z,0
2018-04-29T19:45:02.998Z,0
2018-04-29T19:50:02.600Z,0
2018-04-29T19:55:03.217Z,0
2018-04-29T20:00:03.373Z,0
2018-04-29T20:05:03.051Z,0
2018-04-29T20:10:02.688Z,0
2018-04-29T20:15:03.293Z,0
2018-04-29T20:20:02.874Z,0
2018-04-29T20:25:03.559Z,0
2018-04-29T20:30:03.342Z,0
2018-04-29T20:35:03.334Z,0
2018-04-29T20:40:02.943Z,0
2018-04-29T20:45:02.535Z,0
2018-04-29T20:50:03.152Z,0
2018-04-29T20:55:02.750Z,0
2018-04-29T21:00:03.366Z,0
2018-04-29T21:05:02.942Z,0
2018-04-29T21:10:02.596Z,0
2018-04-29T21:15:03.168Z,0
2018-04-29T21:20:02.743Z,0
2018-04-29T21:25:03.272Z,0
2018-04-29T21:30:02.974Z,0
2018-04-29T21:35:02.571Z,0
2018-04-29T21:40:03.293Z,0
2018-04-29T21:45:02.889Z,0
2018-04-29T21:50:03.444Z,0
2018-04-29T21:55:03.024Z,0
2018-04-29T22:00:02.666Z,0
2018-04-29T22:05:03.242Z,0
2018-04-29T22:10:02.868Z,0
2018-04-29T22:15:03.536Z,0
2018-04-29T22:20:03.154Z,0
2018-04-29T22:25:02.742Z,0
2018-04-29T22:30:03.363Z,0
2018-04-29T22:35:02.947Z,0
2018-04-29T22:40:02.605Z,0
2018-04-29T22:45:03.167Z,0
2018-04-29T22:50:02.676Z,0
2018-04-29T22:55:03.250Z,0
2018-04-29T23:00:02.774Z,1
2018-04-29T23:05:03.356Z,0
2018-04-29T23:10:02.979Z,0
2018-04-29T23:15:02.721Z,0
2018-04-29T23:20:03.431Z,0
2018-04-29T23:25:02.982Z,0
2018-04-29T23:30:02.791Z,1
2018-04-29T23:35:03.461Z,1
2018-04-29T23:40:03.118Z,1
2018-04-29T23:45:02.685Z,0
2018-04-29T23:50:03.278Z,0
2018-04-29T23:55:02.885Z,0
